Time;durP1;ratioP1;P1;durP2;ratioP2;P2;SDS_P1;SDS_P2;PMS_P1;PMS_P2;Temp;Humidity;BMP_temperature;BMP_pressure;BME280_temperature;BME280_humidity;BME280_pressure;Samples;Min_cycle;Max_cycle;Signal;HPM_P1;HPM_P2
2021/05/09 00:00:14;;;;;;;24.35;22.98;;;11.40;78.60;;;;;;5042180;28;20198;-73
2021/05/09 00:02:41;;;;;;;23.00;21.80;;;11.40;78.60;;;;;;5029019;28;20193;-74
2021/05/09 00:05:09;;;;;;;23.60;22.38;;;11.30;79.10;;;;;;5029176;28;20193;-73
2021/05/09 00:07:35;;;;;;;23.70;22.30;;;11.30;79.20;;;;;;5034204;28;20893;-73
2021/05/09 00:10:03;;;;;;;23.95;22.55;;;11.30;79.00;;;;;;5045836;28;20475;-74
2021/05/09 00:12:29;;;;;;;23.55;22.25;;;11.30;78.70;;;;;;5048049;28;20743;-72
2021/05/09 00:14:55;;;;;;;23.40;22.10;;;11.20;79.20;;;;;;5039676;28;20678;-72
2021/05/09 00:17:22;;;;;;;23.05;21.80;;;11.30;79.10;;;;;;5036849;28;20201;-73
2021/05/09 00:19:50;;;;;;;22.67;21.48;;;11.30;79.00;;;;;;5029687;28;20193;-73
2021/05/09 00:22:17;;;;;;;23.15;21.85;;;11.30;78.80;;;;;;5030996;28;20221;-74
2021/05/09 00:24:43;;;;;;;22.33;21.20;;;11.20;79.10;;;;;;5031517;28;20201;-75
2021/05/09 00:27:09;;;;;;;23.92;22.60;;;11.20;79.00;;;;;;5040880;28;20566;-79
2021/05/09 00:29:36;;;;;;;23.40;21.90;;;11.20;79.30;;;;;;5036381;28;20221;-76
2021/05/09 00:32:02;;;;;;;22.23;20.98;;;11.20;81.20;;;;;;5029229;28;20220;-74
2021/05/09 00:34:29;;;;;;;22.70;21.50;;;11.20;80.00;;;;;;5029531;28;20198;-75
2021/05/09 00:36:56;;;;;;;22.67;21.37;;;11.20;79.70;;;;;;5027433;28;21093;-76
2021/05/09 00:39:22;;;;;;;21.97;20.87;;;11.20;79.40;;;;;;5030979;28;20448;-76
2021/05/09 00:41:49;;;;;;;21.52;20.33;;;11.20;79.70;;;;;;5027864;28;20555;-74
2021/05/09 00:44:15;;;;;;;23.38;21.95;;;11.20;80.20;;;;;;5030315;28;20197;-74
2021/05/09 00:46:42;;;;;;;22.92;21.73;;;11.30;80.40;;;;;;5033570;28;20717;-75
2021/05/09 00:49:09;;;;;;;22.50;21.30;;;11.20;79.70;;;;;;5039371;28;20327;-74
2021/05/09 00:51:35;;;;;;;22.65;21.40;;;11.20;79.70;;;;;;5028269;28;20898;-76
2021/05/09 00:54:03;;;;;;;22.45;21.15;;;11.30;79.30;;;;;;5040080;28;20507;-74
2021/05/09 00:56:29;;;;;;;22.67;21.48;;;11.30;79.10;;;;;;5047108;28;20198;-76
2021/05/09 00:58:57;;;;;;;23.00;21.80;;;11.30;79.30;;;;;;5044068;28;20196;-74
2021/05/09 01:01:23;;;;;;;23.47;21.73;;;11.20;79.50;;;;;;5028016;28;20244;-76
2021/05/09 01:03:53;;;;;;;22.10;21.00;;;11.20;79.60;;;;;;5031510;28;20483;-74
2021/05/09 01:06:20;;;;;;;23.10;21.80;;;11.20;79.70;;;;;;5033580;28;20194;-76
2021/05/09 01:08:47;;;;;;;22.97;21.60;;;11.20;79.60;;;;;;5036081;28;20479;-74
2021/05/09 01:11:14;;;;;;;23.10;21.90;;;11.20;79.60;;;;;;5045404;28;20484;-74
2021/05/09 01:13:41;;;;;;;23.10;21.70;;;11.20;79.70;;;;;;5046281;28;21044;-74
2021/05/09 01:16:07;;;;;;;22.90;21.60;;;11.20;79.70;;;;;;5027560;28;20838;-76
2021/05/09 01:18:33;;;;;;;23.10;21.90;;;11.10;79.90;;;;;;5028373;28;20467;-75
2021/05/09 01:21:01;;;;;;;22.30;21.00;;;11.20;79.90;;;;;;5027741;28;20474;-78
2021/05/09 01:23:27;;;;;;;23.80;22.50;;;11.20;79.80;;;;;;5032914;28;20452;-75
2021/05/09 01:25:54;;;;;;;22.60;21.40;;;11.20;79.80;;;;;;5035692;28;20458;-74
2021/05/09 01:28:20;;;;;;;22.63;21.33;;;11.30;79.90;;;;;;5029636;28;20762;-74
2021/05/09 01:30:46;;;;;;;22.60;21.37;;;11.30;79.60;;;;;;5036759;28;20601;-74
2021/05/09 01:33:13;;;;;;;22.03;20.83;;;11.30;79.40;;;;;;5046615;28;20546;-77
2021/05/09 01:35:39;;;;;;;21.80;20.63;;;11.30;79.50;;;;;;5035092;28;20464;-76
2021/05/09 01:38:06;;;;;;;22.03;20.83;;;11.20;79.80;;;;;;5029540;28;20456;-75
2021/05/09 01:40:33;;;;;;;22.20;21.10;;;11.30;79.80;;;;;;5039486;28;20527;-76
2021/05/09 01:42:59;;;;;;;22.50;21.30;;;11.30;79.80;;;;;;5027126;28;20205;-77
2021/05/09 01:45:26;;;;;;;22.00;20.90;;;11.30;79.70;;;;;;5029178;28;20203;-74
2021/05/09 01:47:52;;;;;;;22.57;21.27;;;11.20;80.10;;;;;;5027528;28;20205;-73
2021/05/09 01:50:20;;;;;;;22.47;21.27;;;11.10;80.40;;;;;;5033384;28;20616;-73
2021/05/09 01:52:47;;;;;;;22.20;21.00;;;11.20;80.20;;;;;;5030926;28;20452;-74
2021/05/09 01:55:19;;;;;;;23.10;21.70;;;11.20;80.20;;;;;;5028093;28;20568;-73
2021/05/09 01:57:46;;;;;;;22.70;21.43;;;11.30;80.00;;;;;;5041810;28;20517;-73
2021/05/09 02:00:14;;;;;;;23.67;22.33;;;11.30;80.10;;;;;;5033630;28;20467;-72
2021/05/09 02:02:40;;;;;;;22.70;21.33;;;11.20;80.20;;;;;;5040014;28;20521;-72
2021/05/09 02:05:08;;;;;;;22.70;21.40;;;11.30;80.10;;;;;;5037490;28;20455;-73
2021/05/09 02:07:35;;;;;;;22.30;21.20;;;11.30;80.20;;;;;;5035321;28;20891;-72
2021/05/09 02:10:03;;;;;;;22.20;21.10;;;11.30;80.90;;;;;;5028851;28;21009;-74
2021/05/09 02:12:30;;;;;;;22.40;21.20;;;11.30;80.10;;;;;;5035288;28;20220;-73
2021/05/09 02:14:56;;;;;;;22.37;21.10;;;11.30;80.00;;;;;;5039515;28;20493;-74
2021/05/09 02:17:23;;;;;;;22.05;20.95;;;11.40;79.60;;;;;;5030151;28;20452;-74
2021/05/09 02:19:49;;;;;;;22.50;21.23;;;11.50;79.20;;;;;;5036153;28;20812;-76
2021/05/09 02:22:16;;;;;;;23.30;21.80;;;11.50;79.00;;;;;;5031175;28;20475;-74
2021/05/09 02:24:43;;;;;;;21.93;20.93;;;11.60;78.90;;;;;;5031312;28;20463;-74
2021/05/09 02:27:09;;;;;;;22.73;21.55;;;11.50;78.90;;;;;;5049783;28;20460;-75
2021/05/09 02:29:37;;;;;;;22.47;21.37;;;11.50;79.00;;;;;;5042666;28;20303;-76
2021/05/09 02:32:04;;;;;;;22.73;21.30;;;11.50;79.10;;;;;;5035123;28;20815;-75
2021/05/09 02:34:30;;;;;;;22.83;21.52;;;11.50;78.90;;;;;;5039862;28;20288;-74
2021/05/09 02:36:57;;;;;;;23.17;21.90;;;11.60;79.30;;;;;;5039614;28;20287;-74
2021/05/09 02:39:23;;;;;;;23.00;21.83;;;11.50;79.00;;;;;;5048659;28;20928;-75
2021/05/09 02:41:50;;;;;;;22.80;21.60;;;11.50;79.00;;;;;;5049885;28;20737;-74
2021/05/09 02:44:16;;;;;;;23.60;22.20;;;11.40;79.30;;;;;;5041135;28;20829;-74
2021/05/09 02:46:43;;;;;;;22.93;21.73;;;11.40;79.30;;;;;;5031420;28;20460;-78
2021/05/09 02:49:10;;;;;;;22.85;21.65;;;11.50;79.10;;;;;;5037010;28;21002;-73
2021/05/09 02:51:36;;;;;;;24.23;22.40;;;11.60;79.00;;;;;;5033734;28;20275;-79
2021/05/09 02:54:03;;;;;;;22.67;21.47;;;11.60;78.90;;;;;;5034374;28;21004;-76
2021/05/09 02:56:29;;;;;;;23.90;22.20;;;11.60;78.80;;;;;;5049655;28;20461;-74
2021/05/09 02:58:56;;;;;;;24.10;22.70;;;11.60;78.70;;;;;;5038800;28;20505;-76
2021/05/09 03:01:22;;;;;;;24.27;22.37;;;11.60;78.70;;;;;;5030072;28;20605;-75
2021/05/09 03:03:50;;;;;;;22.97;21.77;;;11.70;78.80;;;;;;5033579;28;20550;-74
2021/05/09 03:06:16;;;;;;;23.43;22.13;;;11.70;78.30;;;;;;5047480;28;20905;-74
2021/05/09 03:08:43;;;;;;;22.73;21.53;;;11.70;78.30;;;;;;5044230;28;20546;-73
2021/05/09 03:11:09;;;;;;;23.47;22.07;;;11.70;78.20;;;;;;5038777;28;20491;-73
2021/05/09 03:13:36;;;;;;;25.08;23.08;;;11.70;78.40;;;;;;5032258;28;20471;-72
2021/05/09 03:16:03;;;;;;;23.83;22.30;;;11.70;78.30;;;;;;5029799;28;20200;-72
2021/05/09 03:18:29;;;;;;;23.05;21.75;;;11.80;78.20;;;;;;5030072;28;20526;-73
2021/05/09 03:20:57;;;;;;;24.00;22.40;;;11.70;78.20;;;;;;5043022;28;20217;-72
2021/05/09 03:23:24;;;;;;;25.40;22.40;;;11.70;78.40;;;;;;5039921;28;20482;-72
2021/05/09 03:25:50;;;;;;;24.00;22.50;;;11.70;78.60;;;;;;5031313;28;20456;-72
2021/05/09 03:28:17;;;;;;;23.33;22.13;;;11.70;78.70;;;;;;5036741;28;20457;-72
2021/05/09 03:30:43;;;;;;;22.70;21.40;;;11.60;79.10;;;;;;5040307;28;20539;-72
2021/05/09 03:33:09;;;;;;;24.30;22.80;;;11.60;79.60;;;;;;5045050;28;20205;-72
2021/05/09 03:35:36;;;;;;;23.50;21.90;;;11.60;80.10;;;;;;5032049;28;20578;-73
2021/05/09 03:38:05;;;;;;;26.00;24.10;;;11.60;79.40;;;;;;5034619;28;20984;-73
2021/05/09 03:40:31;;;;;;;27.10;24.30;;;11.60;79.40;;;;;;5043712;28;20464;-72
2021/05/09 03:42:58;;;;;;;24.40;22.37;;;11.50;79.40;;;;;;5043437;28;20978;-73
2021/05/09 03:45:24;;;;;;;24.33;22.37;;;11.50;79.40;;;;;;5033608;28;20550;-72
2021/05/09 03:47:51;;;;;;;22.83;21.63;;;11.60;79.30;;;;;;5048583;28;20457;-73
2021/05/09 03:50:17;;;;;;;23.83;22.33;;;11.50;79.80;;;;;;5037492;28;20479;-72
2021/05/09 03:52:43;;;;;;;23.70;22.40;;;11.60;79.50;;;;;;5029211;28;20201;-73
2021/05/09 03:55:11;;;;;;;23.17;21.83;;;11.50;79.50;;;;;;5041428;28;20485;-74
2021/05/09 03:57:37;;;;;;;23.67;22.27;;;11.50;79.70;;;;;;5045908;28;20465;-75
2021/05/09 04:00:05;;;;;;;22.40;21.20;;;11.50;80.00;;;;;;5035968;28;20472;-72
2021/05/09 04:02:31;;;;;;;24.23;22.90;;;11.50;79.80;;;;;;5029021;28;20559;-72
2021/05/09 04:04:58;;;;;;;27.47;23.93;;;11.50;79.70;;;;;;5044353;28;20325;-72
2021/05/09 04:07:24;;;;;;;23.70;22.40;;;11.50;79.90;;;;;;5028019;28;20491;-73
2021/05/09 04:09:50;;;;;;;23.60;21.90;;;11.50;80.00;;;;;;5041261;28;20533;-72
2021/05/09 04:12:18;;;;;;;24.00;21.90;;;11.50;79.90;;;;;;5047163;28;20532;-73
2021/05/09 04:14:44;;;;;;;23.07;21.50;;;11.50;80.10;;;;;;5040096;28;20828;-73
2021/05/09 04:17:10;;;;;;;25.27;23.00;;;11.60;79.70;;;;;;5028626;28;20536;-73
2021/05/09 04:19:37;;;;;;;27.23;24.63;;;11.60;79.70;;;;;;5038224;28;20561;-72
2021/05/09 04:22:05;;;;;;;23.70;21.90;;;11.60;79.90;;;;;;5045467;28;20473;-72
2021/05/09 04:24:32;;;;;;;23.93;22.17;;;11.60;79.70;;;;;;5031410;28;20514;-73
2021/05/09 04:26:58;;;;;;;23.10;21.90;;;11.70;79.90;;;;;;5027842;28;20470;-72
2021/05/09 04:29:25;;;;;;;24.00;22.60;;;11.80;80.30;;;;;;5044511;28;20527;-73
2021/05/09 04:31:52;;;;;;;24.27;22.97;;;11.90;79.70;;;;;;5038364;28;20478;-73
2021/05/09 04:34:18;;;;;;;23.63;22.33;;;12.00;78.90;;;;;;5032118;28;20551;-72
2021/05/09 04:36:44;;;;;;;23.60;22.30;;;12.10;78.70;;;;;;5035788;28;20954;-73
2021/05/09 04:39:11;;;;;;;23.73;22.33;;;12.30;78.20;;;;;;5035860;28;20641;-73
2021/05/09 04:41:37;;;;;;;22.90;21.70;;;12.30;77.70;;;;;;5044389;28;20538;-73
2021/05/09 04:44:04;;;;;;;24.10;22.70;;;12.40;77.70;;;;;;5042907;28;20491;-74
2021/05/09 04:46:32;;;;;;;26.57;24.23;;;12.50;77.00;;;;;;5028235;28;20464;-74
2021/05/09 04:48:58;;;;;;;23.90;22.50;;;12.50;76.90;;;;;;5030063;28;20464;-73
2021/05/09 04:51:24;;;;;;;23.37;22.17;;;12.60;76.90;;;;;;5040978;28;20563;-72
2021/05/09 04:53:51;;;;;;;24.70;23.40;;;12.70;76.70;;;;;;5030253;28;20474;-72
2021/05/09 04:56:18;;;;;;;25.20;23.80;;;12.70;76.50;;;;;;5028384;28;20470;-72
2021/05/09 04:58:45;;;;;;;25.70;24.20;;;12.80;81.00;;;;;;5030148;28;20470;-72
2021/05/09 05:01:12;;;;;;;27.47;25.10;;;12.80;77.90;;;;;;5039560;28;20835;-73
2021/05/09 05:03:40;;;;;;;26.60;24.73;;;12.80;76.30;;;;;;5030897;28;20474;-73
2021/05/09 05:06:07;;;;;;;24.70;23.40;;;12.90;76.00;;;;;;5047826;28;20463;-75
2021/05/09 05:08:34;;;;;;;23.90;22.70;;;13.00;75.60;;;;;;5046734;28;20459;-73
2021/05/09 05:11:01;;;;;;;24.60;23.20;;;12.90;77.00;;;;;;5047025;28;20475;-74
2021/05/09 05:13:31;;;;;;;25.03;23.63;;;13.10;75.80;;;;;;5039051;28;20499;-73
2021/05/09 05:15:59;;;;;;;24.70;23.40;;;13.10;75.40;;;;;;5028932;28;20499;-77
2021/05/09 05:18:26;;;;;;;24.63;23.20;;;13.00;75.70;;;;;;5042040;28;20469;-75
2021/05/09 05:20:55;;;;;;;25.57;23.97;;;13.00;75.80;;;;;;5038005;28;20541;-75
2021/05/09 05:23:22;;;;;;;25.20;23.70;;;13.00;76.80;;;;;;5041767;28;20880;-74
2021/05/09 05:25:49;;;;;;;25.20;23.63;;;13.00;77.40;;;;;;5044093;28;20472;-74
2021/05/09 05:28:16;;;;;;;25.93;24.07;;;13.00;76.20;;;;;;5027692;28;20514;-76
2021/05/09 05:30:45;;;;;;;26.67;24.83;;;13.20;75.90;;;;;;5038836;28;20482;-74
2021/05/09 05:33:28;;;;;;;25.37;23.87;;;13.40;75.30;;;;;;5031453;28;20454;-74
2021/05/09 05:35:55;;;;;;;27.63;25.47;;;13.50;75.00;;;;;;5028216;28;20798;-75
2021/05/09 05:38:22;;;;;;;26.07;24.47;;;13.50;75.10;;;;;;5032099;28;21316;-75
2021/05/09 05:40:50;;;;;;;27.47;25.77;;;13.60;74.30;;;;;;5041703;28;20479;-72
2021/05/09 05:43:17;;;;;;;25.70;24.00;;;13.80;73.80;;;;;;5031767;28;20491;-75
2021/05/09 05:45:43;;;;;;;26.43;24.80;;;13.80;73.50;;;;;;5034915;28;20469;-74
2021/05/09 05:48:10;;;;;;;25.20;23.70;;;13.90;73.20;;;;;;5048281;28;20529;-74
2021/05/09 05:50:36;;;;;;;24.43;23.10;;;13.90;73.20;;;;;;5049691;28;20561;-73
2021/05/09 05:53:03;;;;;;;23.87;22.63;;;14.10;73.90;;;;;;5038395;28;20499;-75
2021/05/09 05:55:30;;;;;;;25.30;23.97;;;14.20;73.10;;;;;;5041451;28;20506;-72
2021/05/09 05:57:56;;;;;;;25.57;24.17;;;14.30;72.70;;;;;;5052160;28;20525;-73
2021/05/09 06:00:23;;;;;;;24.73;23.33;;;14.50;71.70;;;;;;5037846;28;20455;-74
2021/05/09 06:02:49;;;;;;;25.60;24.20;;;14.60;71.30;;;;;;5038729;28;20458;-73
2021/05/09 06:05:17;;;;;;;24.70;23.30;;;14.60;71.40;;;;;;5036624;28;20464;-75
2021/05/09 06:07:43;;;;;;;25.13;23.83;;;14.70;71.70;;;;;;5050977;28;20454;-73
2021/05/09 06:10:12;;;;;;;25.20;23.90;;;14.80;71.10;;;;;;5036368;28;20475;-73
2021/05/09 06:12:39;;;;;;;26.03;24.63;;;14.90;70.40;;;;;;5032335;28;21107;-73
2021/05/09 06:15:07;;;;;;;25.67;24.27;;;14.90;70.10;;;;;;5033898;28;20949;-73
2021/05/09 06:17:34;;;;;;;25.50;23.80;;;15.00;69.90;;;;;;5030975;28;20462;-73
2021/05/09 06:20:00;;;;;;;24.40;23.10;;;15.10;69.90;;;;;;5038242;28;20506;-73
2021/05/09 06:22:27;;;;;;;25.70;24.10;;;15.30;69.00;;;;;;5032318;28;21012;-71
2021/05/09 06:24:53;;;;;;;26.23;24.63;;;15.30;68.70;;;;;;5046278;28;20510;-72
2021/05/09 06:27:20;;;;;;;26.00;24.60;;;15.40;68.60;;;;;;5038351;28;21011;-72
2021/05/09 06:29:47;;;;;;;26.53;24.83;;;15.40;68.50;;;;;;5040098;28;20574;-73
2021/05/09 06:32:13;;;;;;;27.33;25.43;;;15.60;68.10;;;;;;5032611;28;20857;-72
2021/05/09 06:34:43;;;;;;;25.30;23.90;;;15.70;67.70;;;;;;5042991;28;20451;-72
2021/05/09 06:37:10;;;;;;;27.07;25.37;;;15.70;67.60;;;;;;5044012;28;20538;-72
2021/05/09 06:39:36;;;;;;;26.60;24.90;;;15.70;67.60;;;;;;5042199;28;20462;-72
2021/05/09 06:42:03;;;;;;;26.93;25.33;;;15.70;67.40;;;;;;5046272;28;20835;-73
2021/05/09 06:44:33;;;;;;;26.10;24.60;;;15.90;66.80;;;;;;5032632;28;21021;-73
2021/05/09 06:47:01;;;;;;;25.87;24.37;;;16.00;65.80;;;;;;5031107;28;20456;-74
2021/05/09 06:49:27;;;;;;;25.67;24.20;;;15.90;66.50;;;;;;5040668;28;21016;-73
2021/05/09 06:51:55;;;;;;;25.37;24.07;;;15.90;66.00;;;;;;5033663;28;20476;-71
2021/05/09 06:54:21;;;;;;;25.73;24.43;;;16.00;65.80;;;;;;5038808;28;20468;-71
2021/05/09 06:56:48;;;;;;;27.70;24.73;;;16.20;65.20;;;;;;5038313;28;20993;-71
2021/05/09 06:59:15;;;;;;;25.97;24.23;;;16.20;65.20;;;;;;5039961;28;20575;-75
2021/05/09 07:01:42;;;;;;;27.70;25.70;;;16.30;65.00;;;;;;5032670;28;20484;-74
2021/05/09 07:04:08;;;;;;;28.23;26.17;;;16.40;65.10;;;;;;5037248;28;20459;-73
2021/05/09 07:06:35;;;;;;;27.67;25.60;;;16.50;64.60;;;;;;5050230;28;20596;-74
2021/05/09 07:09:02;;;;;;;62.77;30.93;;;16.60;64.50;;;;;;5042300;28;20470;-75
2021/05/09 07:11:30;;;;;;;27.87;25.43;;;16.70;64.40;;;;;;5030627;28;20479;-74
2021/05/09 07:13:56;;;;;;;26.20;24.00;;;16.70;64.30;;;;;;5035485;28;20823;-74
2021/05/09 07:16:24;;;;;;;26.23;24.53;;;16.80;64.30;;;;;;5037768;28;21013;-74
2021/05/09 07:18:52;;;;;;;25.93;24.53;;;17.00;63.60;;;;;;5044512;28;20471;-76
2021/05/09 07:21:24;;;;;;;24.40;23.10;;;17.10;63.10;;;;;;5039371;28;20471;-78
2021/05/09 07:23:51;;;;;;;26.00;24.60;;;17.20;63.10;;;;;;5034533;28;20454;-75
2021/05/09 07:26:17;;;;;;;24.63;23.23;;;17.30;62.80;;;;;;5050162;28;20449;-76
2021/05/09 07:28:44;;;;;;;25.73;24.30;;;17.40;62.80;;;;;;5045610;28;20459;-75
2021/05/09 07:31:10;;;;;;;25.73;24.33;;;17.50;62.50;;;;;;5041077;28;20476;-75
2021/05/09 07:33:42;;;;;;;25.33;23.83;;;17.60;61.70;;;;;;5038266;28;20853;-74
2021/05/09 07:36:16;;;;;;;25.73;24.23;;;17.80;61.60;;;;;;5040723;28;21329;-76
2021/05/09 07:38:44;;;;;;;24.70;23.40;;;18.00;61.50;;;;;;5036577;28;20470;-75
2021/05/09 07:41:10;;;;;;;25.87;24.27;;;18.10;61.20;;;;;;5035491;28;20545;-75
2021/05/09 07:43:37;;;;;;;24.47;22.93;;;18.30;60.80;;;;;;5037469;28;20477;-77
2021/05/09 07:46:03;;;;;;;25.57;24.20;;;18.40;60.10;;;;;;5039662;28;20467;-75
2021/05/09 07:48:30;;;;;;;29.00;26.20;;;18.70;59.20;;;;;;5044733;28;20463;-73
2021/05/09 07:51:02;;;;;;;29.00;25.90;;;18.80;58.50;;;;;;5039895;28;20474;-74
2021/05/09 07:53:33;;;;;;;26.37;24.50;;;18.90;58.70;;;;;;5045678;28;20470;-74
2021/05/09 07:55:59;;;;;;;41.93;26.50;;;19.00;58.80;;;;;;5035005;28;20451;-74
2021/05/09 07:58:27;;;;;;;27.33;25.60;;;19.30;58.40;;;;;;5040796;28;21007;-74
2021/05/09 08:00:54;;;;;;;25.77;24.23;;;19.40;57.60;;;;;;5033122;28;20476;-73
2021/05/09 08:03:21;;;;;;;24.63;23.33;;;19.60;56.60;;;;;;5047831;28;20731;-73
2021/05/09 08:05:47;;;;;;;25.00;23.50;;;19.70;56.40;;;;;;5035850;28;20925;-74
2021/05/09 08:08:14;;;;;;;24.80;23.60;;;19.80;56.30;;;;;;5040644;28;20451;-74
2021/05/09 08:10:42;;;;;;;25.47;24.07;;;20.00;56.20;;;;;;5030112;28;20487;-74
2021/05/09 08:13:11;;;;;;;24.50;23.20;;;20.20;55.90;;;;;;5033391;28;20490;-74
2021/05/09 08:15:39;;;;;;;28.10;26.60;;;20.40;55.20;;;;;;5034560;28;20463;-74
2021/05/09 08:18:06;;;;;;;26.60;25.20;;;20.60;55.00;;;;;;5035174;28;21236;-76
2021/05/09 08:20:34;;;;;;;23.93;22.73;;;20.80;54.50;;;;;;5040098;28;20493;-74
2021/05/09 08:23:01;;;;;;;24.43;22.77;;;21.00;53.70;;;;;;5027519;28;20464;-74
2021/05/09 08:25:28;;;;;;;24.23;23.03;;;21.20;53.00;;;;;;5038903;28;20468;-74
2021/05/09 08:27:55;;;;;;;25.80;24.40;;;21.50;51.80;;;;;;5040575;28;20477;-74
2021/05/09 08:30:23;;;;;;;25.40;23.90;;;21.80;50.80;;;;;;5034843;28;20474;-74
2021/05/09 08:32:50;;;;;;;24.93;23.43;;;22.10;50.50;;;;;;5043120;28;20523;-75
2021/05/09 08:35:16;;;;;;;23.73;22.53;;;22.30;49.60;;;;;;5038373;28;20455;-75
2021/05/09 08:37:43;;;;;;;23.47;22.07;;;22.50;49.40;;;;;;5030638;28;20523;-75
2021/05/09 08:40:13;;;;;;;25.20;23.90;;;22.70;48.80;;;;;;5036581;28;20451;-75
2021/05/09 08:42:40;;;;;;;23.70;22.40;;;22.90;48.20;;;;;;5034302;28;20912;-76
2021/05/09 08:45:09;;;;;;;24.33;23.13;;;23.00;47.40;;;;;;5030904;28;20458;-75
2021/05/09 08:47:37;;;;;;;23.50;22.30;;;23.20;47.60;;;;;;5028019;28;20488;-75
2021/05/09 08:50:06;;;;;;;24.93;23.70;;;23.30;47.70;;;;;;5039851;28;20640;-76
2021/05/09 08:52:34;;;;;;;326.27;60.17;;;23.50;48.00;;;;;;5041096;28;20570;-76
2021/05/09 08:55:00;;;;;;;26.63;24.90;;;23.70;48.00;;;;;;5034629;28;20466;-76
2021/05/09 08:57:27;;;;;;;24.17;22.97;;;23.70;48.00;;;;;;5040262;28;20462;-76
2021/05/09 08:59:53;;;;;;;22.70;21.60;;;23.90;48.00;;;;;;5039597;28;20452;-75
2021/05/09 09:02:22;;;;;;;25.13;23.63;;;24.00;47.60;;;;;;5040968;28;20481;-75
2021/05/09 09:04:50;;;;;;;24.20;22.67;;;24.20;47.30;;;;;;5033131;28;20456;-75
2021/05/09 09:07:17;;;;;;;23.90;22.70;;;24.30;47.10;;;;;;5034043;28;20469;-75
2021/05/09 09:09:45;;;;;;;23.47;22.27;;;24.50;46.70;;;;;;5032546;28;20483;-75
2021/05/09 09:12:12;;;;;;;24.63;23.33;;;24.60;46.10;;;;;;5040688;28;20481;-75
2021/05/09 09:14:53;;;;;;;24.20;22.90;;;24.60;45.70;;;;;;5031609;28;20456;-75
2021/05/09 09:17:19;;;;;;;26.30;24.90;;;24.80;45.20;;;;;;5026741;28;20464;-75
2021/05/09 09:20:07;;;;;;;24.60;23.10;;;24.90;45.20;;;;;;5027512;28;20482;-75
2021/05/09 09:23:03;;;;;;;25.27;24.00;;;25.00;43.90;;;;;;5042181;28;20478;-75
2021/05/09 09:25:32;;;;;;;25.50;24.20;;;25.20;43.70;;;;;;5034996;28;20451;-75
2021/05/09 09:27:59;;;;;;;24.10;22.90;;;25.30;42.70;;;;;;5032384;28;20466;-76
2021/05/09 09:30:27;;;;;;;24.80;23.50;;;25.50;42.20;;;;;;5034485;28;20528;-75
2021/05/09 09:33:12;;;;;;;25.70;24.40;;;25.60;42.20;;;;;;5039476;28;20551;-75
2021/05/09 09:35:40;;;;;;;25.87;24.57;;;25.80;41.60;;;;;;5042604;28;21248;-75
2021/05/09 09:38:23;;;;;;;24.70;23.40;;;25.90;41.50;;;;;;5038424;28;20549;-76
2021/05/09 09:41:13;;;;;;;25.60;24.10;;;26.10;41.50;;;;;;5046879;28;20486;-76
2021/05/09 09:43:45;;;;;;;25.30;23.90;;;26.20;41.00;;;;;;5033395;28;20451;-75
2021/05/09 09:46:26;;;;;;;26.47;24.50;;;26.30;41.20;;;;;;5036026;28;20460;-75
2021/05/09 09:48:53;;;;;;;26.57;25.07;;;26.40;40.60;;;;;;5032640;28;20586;-75
2021/05/09 09:51:21;;;;;;;25.80;24.30;;;26.60;40.40;;;;;;5032321;28;20574;-75
2021/05/09 09:53:48;;;;;;;25.07;23.67;;;26.70;39.90;;;;;;5034024;28;20585;-75
2021/05/09 09:56:15;;;;;;;25.20;23.90;;;26.70;39.20;;;;;;5047340;28;20716;-74
2021/05/09 09:58:50;;;;;;;25.33;23.83;;;26.90;38.40;;;;;;5043619;28;20546;-74
2021/05/09 10:01:19;;;;;;;25.97;24.57;;;26.90;39.20;;;;;;5031907;28;21249;-75
2021/05/09 10:03:47;;;;;;;24.53;23.23;;;27.10;39.20;;;;;;5042445;28;20829;-74
2021/05/09 10:06:14;;;;;;;25.30;23.90;;;27.20;38.90;;;;;;5040228;28;20567;-75
2021/05/09 10:08:42;;;;;;;25.03;23.70;;;27.20;37.80;;;;;;5034301;28;20898;-75
2021/05/09 10:11:09;;;;;;;25.87;24.47;;;27.30;37.10;;;;;;5041393;28;20559;-75
2021/05/09 10:13:36;;;;;;;26.27;24.80;;;27.30;36.50;;;;;;5040393;28;20615;-75
2021/05/09 10:16:04;;;;;;;25.17;23.87;;;27.40;36.40;;;;;;5047201;28;20455;-75
2021/05/09 10:18:31;;;;;;;27.17;25.33;;;27.50;36.70;;;;;;5040958;28;20961;-75
2021/05/09 10:20:59;;;;;;;24.90;23.53;;;27.70;36.60;;;;;;5045252;28;20471;-75
2021/05/09 10:23:25;;;;;;;25.93;24.43;;;27.80;35.40;;;;;;5044657;28;20546;-74
2021/05/09 10:25:55;;;;;;;25.30;23.70;;;27.80;35.40;;;;;;5047226;28;20948;-75
2021/05/09 10:28:23;;;;;;;25.67;23.97;;;27.80;35.50;;;;;;5042567;28;20455;-74
2021/05/09 10:30:54;;;;;;;25.93;24.53;;;28.00;35.60;;;;;;5041738;28;20475;-75
2021/05/09 10:33:43;;;;;;;25.50;24.10;;;28.10;35.10;;;;;;5033039;28;20498;-74
2021/05/09 10:36:26;;;;;;;25.80;24.00;;;28.10;35.10;;;;;;5035305;28;20463;-76
2021/05/09 10:39:17;;;;;;;25.90;24.20;;;28.10;35.10;;;;;;5030876;28;20454;-76
2021/05/09 10:42:18;;;;;;;24.00;22.70;;;28.10;34.60;;;;;;5016736;28;21128;-76
2021/05/09 10:44:48;;;;;;;24.20;22.90;;;28.00;34.90;;;;;;5031169;28;20776;-76
2021/05/09 10:47:19;;;;;;;28.17;26.47;;;28.10;34.80;;;;;;5035726;28;20462;-79
2021/05/09 10:50:23;;;;;;;24.70;23.27;;;28.10;35.10;;;;;;5045315;28;20475;-77
2021/05/09 10:52:51;;;;;;;26.13;24.73;;;28.20;34.00;;;;;;5030156;28;20513;-75
2021/05/09 10:55:41;;;;;;;25.00;23.60;;;28.30;33.70;;;;;;5040713;28;21113;-73
2021/05/09 10:58:10;;;;;;;25.90;24.40;;;28.30;33.60;;;;;;5050041;28;20473;-73
2021/05/09 11:01:16;;;;;;;25.13;23.73;;;28.10;34.30;;;;;;5040271;28;20986;-75
2021/05/09 11:03:51;;;;;;;29.80;28.17;;;28.30;34.30;;;;;;5026689;28;20456;-75
2021/05/09 11:06:18;;;;;;;25.60;24.00;;;28.40;34.40;;;;;;5045336;28;20473;-72
2021/05/09 11:08:59;;;;;;;25.23;23.90;;;28.40;34.10;;;;;;5036049;28;20572;-76
2021/05/09 11:12:00;;;;;;;24.87;23.50;;;28.50;34.10;;;;;;5049942;28;20483;-74
2021/05/09 11:14:31;;;;;;;25.13;23.77;;;28.60;33.80;;;;;;5048372;28;20824;-74
2021/05/09 11:17:17;;;;;;;25.67;24.10;;;28.70;33.80;;;;;;5030204;28;20460;-74
2021/05/09 11:19:51;;;;;;;25.20;23.80;;;28.80;33.80;;;;;;5034950;28;20467;-74
2021/05/09 11:22:23;;;;;;;24.67;23.37;;;28.90;33.70;;;;;;5031119;28;20471;-74
2021/05/09 11:25:00;;;;;;;26.07;24.37;;;28.90;33.20;;;;;;5042667;28;20454;-72
2021/05/09 11:27:32;;;;;;;24.13;22.80;;;28.90;33.00;;;;;;5049406;28;20454;-75
2021/05/09 11:30:01;;;;;;;26.80;25.30;;;28.90;33.10;;;;;;5037253;28;21361;-72
2021/05/09 11:32:30;;;;;;;24.70;23.40;;;29.00;33.40;;;;;;5038897;28;20471;-74
2021/05/09 11:35:00;;;;;;;26.00;24.40;;;29.10;33.10;;;;;;5041519;28;20459;-75
2021/05/09 11:37:34;;;;;;;27.47;26.07;;;29.10;32.20;;;;;;5048619;28;20459;-75
2021/05/09 11:40:04;;;;;;;24.83;23.43;;;29.10;31.80;;;;;;5043266;28;20454;-76
2021/05/09 11:42:30;;;;;;;25.07;23.77;;;29.10;32.40;;;;;;5039339;28;20560;-74
2021/05/09 11:44:57;;;;;;;28.77;27.20;;;29.30;32.50;;;;;;5036318;28;20468;-74
2021/05/09 11:47:26;;;;;;;26.73;25.23;;;29.30;32.20;;;;;;5029690;28;20460;-74
2021/05/09 11:49:56;;;;;;;24.23;22.73;;;29.40;31.90;;;;;;5032499;28;21199;-75
2021/05/09 11:52:24;;;;;;;25.17;23.87;;;29.60;31.90;;;;;;5051447;28;20562;-75
2021/05/09 11:54:53;;;;;;;25.70;24.40;;;29.60;31.90;;;;;;5044583;28;20550;-76
2021/05/09 11:57:21;;;;;;;25.63;24.03;;;29.70;31.80;;;;;;5035506;28;20535;-76
2021/05/09 11:59:48;;;;;;;25.07;23.73;;;29.80;31.60;;;;;;5032065;28;20471;-74
2021/05/09 12:02:24;;;;;;;25.57;24.17;;;29.90;31.80;;;;;;5041240;28;20964;-74
2021/05/09 12:04:53;;;;;;;25.00;23.70;;;30.00;31.80;;;;;;5041328;28;20459;-74
2021/05/09 12:07:22;;;;;;;27.07;25.30;;;30.20;31.30;;;;;;5037577;28;20466;-73
2021/05/09 12:09:54;;;;;;;24.60;23.20;;;30.20;31.50;;;;;;5036859;28;20508;-75
2021/05/09 12:12:23;;;;;;;25.73;24.20;;;30.10;31.20;;;;;;5035174;28;20976;-75
2021/05/09 12:14:53;;;;;;;27.30;25.50;;;30.10;31.00;;;;;;5038519;28;20873;-76
2021/05/09 12:17:26;;;;;;;26.90;25.50;;;30.10;31.20;;;;;;5028577;28;20520;-75
2021/05/09 12:19:54;;;;;;;25.13;23.70;;;30.10;31.00;;;;;;5031610;28;20510;-75
2021/05/09 12:22:21;;;;;;;24.50;23.20;;;30.20;31.00;;;;;;5035181;28;20476;-75
2021/05/09 12:24:50;;;;;;;26.50;25.00;;;30.20;30.90;;;;;;5028701;28;20934;-76
2021/05/09 12:27:17;;;;;;;25.80;24.30;;;30.30;30.90;;;;;;5035154;28;20451;-76
2021/05/09 12:29:45;;;;;;;26.17;24.77;;;30.40;31.00;;;;;;5033834;28;20456;-75
2021/05/09 12:32:20;;;;;;;26.30;24.90;;;30.40;30.60;;;;;;5031163;28;20993;-76